Weather History for Taos, NM

Change the Weather History Date:

Thursday, February 27, 2014

  Actual Average Record
Temperature  
Mean Temperature 36 °F -  
Max Temperature 53 °F 41 °F 64 °F (2006)
Min Temperature 19 °F 17 °F 3 °F (1998)
Degree Days  
Heating Degree Days 29    
Moisture  
Dew Point 20 °F    
Average Humidity 56    
Maximum Humidity 93    
Minimum Humidity 33    
Precipitation  
Precipitation 0.10 in - - ()
Sea Level Pressure  
Sea Level Pressure 29.90 in    
Wind  
Wind Speed 6 mph (West)    
Max Wind Speed 31 mph    
Max Gust Speed 38 mph    
Visibility 10 miles    
Events Thunderstorm    
Averages and records for this station are not official NWS values.
T = Trace of Precipitation, MM = Missing Value Source: NWS Daily Summary

Daily Weather History Graph

Daily Weather History Graph

Search for Another Location

Airport:

Trip Planner

Search our weather history database for the weather conditions in past years. The results will help you decide how hot, cold, wet, or windy it might be!

Date:

Astronomy

Feb. 27, 2014 Rise Set
Actual Time 6:35 AM MST 5:55 PM MST
Civil Twilight 6:09 AM MST 6:21 PM MST
Nautical Twilight 5:39 AM MST 6:51 PM MST
Astronomical Twilight 5:10 AM MST 7:21 PM MST
Moon 5:08 AM MST (2/27) 4:25 PM MST (2/27)
Length of Visible Light 12h 11m
Length of Day
11h 19m
Waning Crescent, 4% of the Moon is Illuminated
Feb 27
Waning Crescent
Mar 1
New
Mar 8
First Quarter
Mar 16
Full
Mar 23
Last Quarter

Hourly Weather History & Observations

Time (MST) Temp. Windchill Dew Point Humidity Pressure Visibility Wind Dir Wind Speed Gust Speed Precip Events Conditions
12:15 AM 30.2 °F - 8.6 °F 40% 30.03 in 10.0 mi Calm Calm - N/A   Clear
12:35 AM 26.6 °F 22.6 °F 6.8 °F 43% 30.02 in 10.0 mi East 3.5 mph - N/A   Clear
12:55 AM 26.6 °F - 8.6 °F 47% 30.02 in 10.0 mi Calm Calm - N/A   Clear
1:15 AM 30.2 °F - 10.4 °F 44% 30.02 in 10.0 mi Calm Calm - N/A   Clear
1:35 AM 26.6 °F - 8.6 °F 47% 30.02 in 10.0 mi Calm Calm - N/A   Clear
1:55 AM 21.2 °F 14.9 °F 6.8 °F 54% 30.02 in 10.0 mi North 4.6 mph - N/A   Clear
2:15 AM 23.0 °F 15.8 °F 6.8 °F 50% 30.01 in 10.0 mi North 5.8 mph - N/A   Clear
2:35 AM 23.0 °F 13.9 °F 8.6 °F 54% 30.00 in 10.0 mi NNE 8.1 mph - N/A   Clear
2:55 AM 24.8 °F 17.9 °F 8.6 °F 50% 30.00 in 10.0 mi NE 5.8 mph - N/A   Clear
3:15 AM 24.8 °F 20.5 °F 8.6 °F 50% 29.99 in 10.0 mi NE 3.5 mph - N/A   Clear
3:35 AM 21.2 °F 13.6 °F 6.8 °F 54% 29.99 in 10.0 mi NNW 5.8 mph - N/A   Partly Cloudy
3:55 AM 24.8 °F 17.9 °F 10.4 °F 54% 29.99 in 10.0 mi North 5.8 mph - N/A   Clear
4:15 AM 19.4 °F 11.5 °F 6.8 °F 58% 29.99 in 10.0 mi North 5.8 mph - N/A   Partly Cloudy
4:35 AM 21.2 °F 14.9 °F 8.6 °F 58% 29.99 in 10.0 mi North 4.6 mph - N/A   Clear
4:55 AM 23.0 °F 15.8 °F 10.4 °F 59% 29.99 in 10.0 mi North 5.8 mph - N/A   Clear
5:15 AM 23.0 °F 17.0 °F 10.4 °F 59% 29.99 in 10.0 mi NE 4.6 mph - N/A   Clear
5:35 AM 21.2 °F 16.4 °F 10.4 °F 63% 29.99 in 10.0 mi ENE 3.5 mph - N/A   Clear
5:55 AM 23.0 °F 15.8 °F 10.4 °F 59% 29.99 in 10.0 mi East 5.8 mph - N/A   Clear
6:15 AM 23.0 °F 17.0 °F 10.4 °F 59% 29.99 in 10.0 mi East 4.6 mph - N/A   Clear
6:35 AM 23.0 °F - 10.4 °F 59% 29.99 in 10.0 mi Calm Calm - N/A   Mostly Cloudy
6:55 AM 24.8 °F - 10.4 °F 54% 29.99 in 10.0 mi Calm Calm - N/A   Partly Cloudy
7:15 AM 24.8 °F 17.9 °F 12.2 °F 59% 29.99 in 10.0 mi SE 5.8 mph - N/A   Clear
7:35 AM 30.2 °F 25.4 °F 15.8 °F 55% 29.98 in 10.0 mi ESE 4.6 mph - N/A   Scattered Clouds
7:55 AM 35.6 °F 31.7 °F 14.0 °F 41% 29.98 in 10.0 mi SSE 4.6 mph - N/A   Mostly Cloudy
8:15 AM 37.4 °F - 12.2 °F 36% 29.98 in 10.0 mi Calm Calm - N/A   Scattered Clouds
8:35 AM 37.4 °F - 14.0 °F 38% 29.98 in 10.0 mi Calm Calm - N/A   Partly Cloudy
8:55 AM 41.0 °F 38.0 °F 15.8 °F 36% 29.99 in 10.0 mi SSW 4.6 mph - N/A   Mostly Cloudy
9:15 AM 42.8 °F 39.3 °F 17.6 °F 36% 29.98 in 10.0 mi SW 5.8 mph - N/A   Overcast
9:35 AM 44.6 °F 38.8 °F 21.2 °F 39% 29.98 in 10.0 mi West 11.5 mph - N/A   Overcast
9:55 AM 42.8 °F 38.0 °F 21.2 °F 42% 29.97 in 10.0 mi WSW 8.1 mph - N/A   Overcast
10:15 AM 44.6 °F 40.7 °F 21.2 °F 39% 29.97 in 10.0 mi WSW 6.9 mph - N/A   Overcast
10:35 AM 44.6 °F 38.4 °F 23.0 °F 43% 29.96 in 10.0 mi West 12.7 mph - N/A   Overcast
10:55 AM 44.6 °F 38.1 °F 23.0 °F 43% 29.95 in 10.0 mi WSW 13.8 mph - N/A   Overcast
11:15 AM 44.6 °F 39.2 °F 24.8 °F 46% 29.95 in 10.0 mi West 10.4 mph - N/A   Overcast
11:35 AM 46.4 °F 41.9 °F 24.8 °F 43% 29.95 in 10.0 mi SW 9.2 mph - N/A   Overcast
11:55 AM 44.6 °F - 24.8 °F 46% 29.94 in 10.0 mi Calm Calm - N/A   Overcast
12:15 PM 44.6 °F - 24.8 °F 46% 29.93 in 10.0 mi Calm Calm - N/A   Overcast
12:35 PM 48.2 °F - 26.6 °F 43% 29.90 in 10.0 mi West 6.9 mph - N/A   Overcast
12:55 PM 46.4 °F 41.5 °F 24.8 °F 43% 29.89 in 10.0 mi SW 10.4 mph - N/A   Overcast
1:15 PM 46.4 °F 41.1 °F 24.8 °F 43% 29.87 in 10.0 mi SW 11.5 mph - N/A   Overcast
1:35 PM 46.4 °F 41.9 °F 24.8 °F 43% 29.86 in 10.0 mi SW 9.2 mph - N/A   Overcast
1:55 PM 46.4 °F 42.9 °F 24.8 °F 43% 29.85 in 10.0 mi South 6.9 mph - N/A   Overcast
2:15 PM 46.4 °F 43.5 °F 24.8 °F 43% 29.83 in 10.0 mi SE 5.8 mph - N/A   Overcast
2:35 PM 50.0 °F - 24.8 °F 37% 29.81 in 10.0 mi West 23.0 mph 26.5 mph N/A   Overcast
2:55 PM 50.0 °F - 24.8 °F 37% 29.79 in 10.0 mi WNW 9.2 mph - N/A   Overcast
3:15 PM 53.6 °F - 24.8 °F 33% 29.79 in 10.0 mi WSW 18.4 mph 21.9 mph N/A   Overcast
3:35 PM 53.6 °F - 26.6 °F 35% 29.78 in 10.0 mi WSW 18.4 mph 27.6 mph N/A   Overcast
3:55 PM 51.8 °F - 26.6 °F 38% 29.77 in 10.0 mi West 11.5 mph 19.6 mph N/A   Mostly Cloudy
4:15 PM 51.8 °F - 24.8 °F 35% 29.75 in 10.0 mi WSW 16.1 mph 25.3 mph N/A   Scattered Clouds
4:35 PM 48.2 °F - 24.8 °F 40% 29.74 in 10.0 mi West 16.1 mph 20.7 mph N/A   Mostly Cloudy
4:55 PM 48.2 °F - 24.8 °F 40% 29.73 in 10.0 mi West 12.7 mph - N/A   Scattered Clouds
5:15 PM 46.4 °F 41.9 °F 26.6 °F 46% 29.72 in 10.0 mi WNW 9.2 mph - N/A   Mostly Cloudy
5:35 PM 44.6 °F 36.4 °F 26.6 °F 49% 29.76 in 10.0 mi West 20.7 mph 26.5 mph N/A Thunderstorm Thunderstorm
5:55 PM 39.2 °F 32.0 °F 32.0 °F 75% 29.77 in 10.0 mi WNW 11.5 mph 18.4 mph 0.03 in   Mostly Cloudy
6:15 PM 37.4 °F 30.8 °F 33.8 °F 87% 29.77 in 10.0 mi NNW 9.2 mph - N/A Thunderstorm Overcast
6:35 PM 37.4 °F 24.8 °F 30.2 °F 75% 29.80 in 9.0 mi West 31.1 mph 38.0 mph 0.02 in Thunderstorm Overcast
6:55 PM 35.6 °F 28.0 °F 30.2 °F 81% 29.80 in 10.0 mi WNW 10.4 mph - 0.04 in Thunderstorm Overcast
7:15 PM 37.4 °F 30.8 °F 30.2 °F 75% 29.78 in 10.0 mi West 9.2 mph - 0.01 in   Overcast
7:35 PM 37.4 °F 28.5 °F 32.0 °F 81% 29.80 in 10.0 mi WSW 15.0 mph 19.6 mph 0.01 in   Overcast
7:55 PM 35.6 °F 26.6 °F 30.2 °F 81% 29.81 in 9.0 mi WSW 13.8 mph 21.9 mph 0.03 in   Overcast
8:15 PM 35.6 °F 25.5 °F 30.2 °F 81% 29.82 in 10.0 mi West 17.3 mph 21.9 mph N/A   Mostly Cloudy
8:35 PM 35.6 °F 26.6 °F 30.2 °F 81% 29.83 in 10.0 mi WNW 13.8 mph 25.3 mph N/A   Overcast
8:55 PM 33.8 °F 30.8 °F 30.2 °F 87% 29.83 in 10.0 mi WSW 3.5 mph - N/A   Mostly Cloudy
9:15 PM 32.0 °F 24.8 °F 30.2 °F 93% 29.84 in 5.0 mi SE 8.1 mph - N/A   Scattered Clouds
9:35 PM 32.0 °F 23.0 °F 30.2 °F 93% 29.84 in 10.0 mi ESE 11.5 mph - N/A   Mostly Cloudy
9:55 PM 33.8 °F 26.4 °F 30.2 °F 87% 29.84 in 10.0 mi ESE 9.2 mph - N/A   Overcast
10:15 PM 33.8 °F 27.0 °F 30.2 °F 87% 29.83 in 10.0 mi ESE 8.1 mph - N/A   Overcast
10:35 PM 33.8 °F 26.4 °F 30.2 °F 87% 29.83 in 10.0 mi South 9.2 mph - N/A   Overcast
10:55 PM 33.8 °F 26.4 °F 28.4 °F 81% 29.83 in 10.0 mi SW 9.2 mph - N/A   Overcast
11:15 PM 33.8 °F 25.8 °F 28.4 °F 81% 29.83 in 10.0 mi SW 10.4 mph - N/A   Overcast
11:35 PM 33.8 °F 26.4 °F 28.4 °F 81% 29.83 in 10.0 mi SW 9.2 mph - N/A   Overcast
11:55 PM 33.8 °F - 26.6 °F 75% 29.83 in 10.0 mi Calm Calm - N/A   Overcast